createdAt,value
2018-07-16T00:02:50.397Z,58.00
2018-07-16T00:05:17.584Z,58.00
2018-07-16T00:07:44.897Z,58.00
2018-07-16T00:10:12.248Z,57.90
2018-07-16T00:12:39.432Z,57.70
2018-07-16T00:15:06.628Z,57.60
2018-07-16T00:17:34.181Z,57.70
2018-07-16T00:20:02.429Z,57.50
2018-07-16T00:22:29.675Z,57.80
2018-07-16T00:24:56.952Z,57.90
2018-07-16T00:27:24.160Z,57.80
2018-07-16T00:29:51.436Z,58.00
2018-07-16T00:32:18.628Z,57.80
2018-07-16T00:34:45.824Z,57.80
2018-07-16T00:37:13.236Z,57.90
2018-07-16T00:39:40.376Z,57.80
2018-07-16T00:42:07.576Z,57.80
2018-07-16T00:44:34.820Z,57.70
2018-07-16T00:47:02.071Z,57.80
2018-07-16T00:49:29.378Z,57.90
2018-07-16T00:51:56.572Z,57.90
2018-07-16T00:54:23.800Z,57.70
2018-07-16T00:56:50.996Z,57.70
2018-07-16T00:59:18.192Z,57.60
2018-07-16T01:01:45.462Z,57.50
2018-07-16T01:04:12.712Z,57.50
2018-07-16T01:06:39.991Z,57.40
2018-07-16T01:09:07.624Z,57.60
2018-07-16T01:11:34.877Z,57.90
2018-07-16T01:14:02.179Z,57.20
2018-07-16T01:16:29.373Z,57.70
2018-07-16T01:18:56.603Z,57.80
2018-07-16T01:21:23.852Z,57.80
2018-07-16T01:23:51.116Z,57.80
2018-07-16T01:26:18.314Z,57.80
2018-07-16T01:28:45.570Z,58.10
2018-07-16T01:31:12.812Z,57.90
2018-07-16T01:33:40.022Z,58.20
2018-07-16T01:36:07.704Z,58.20
2018-07-16T01:38:35.033Z,58.20
2018-07-16T01:41:02.529Z,58.20
2018-07-16T01:43:29.971Z,58.30
2018-07-16T01:45:57.224Z,58.50
2018-07-16T01:48:24.948Z,58.50
2018-07-16T01:50:52.193Z,58.20
2018-07-16T01:53:19.379Z,58.20
2018-07-16T01:55:46.700Z,58.30
2018-07-16T01:58:13.939Z,58.20
2018-07-16T02:00:54.283Z,58.10
2018-07-16T02:03:22.672Z,58.10
2018-07-16T02:05:50.066Z,58.00
2018-07-16T02:08:17.421Z,57.90
2018-07-16T02:10:44.764Z,58.20
2018-07-16T02:13:12.001Z,58.30
2018-07-16T02:15:39.421Z,58.20
2018-07-16T02:18:07.286Z,58.10
2018-07-16T02:20:34.600Z,58.40
2018-07-16T02:23:01.884Z,58.20
2018-07-16T02:25:29.700Z,58.20
2018-07-16T02:27:57.208Z,58.10
2018-07-16T02:30:24.492Z,58.00
2018-07-16T02:32:51.685Z,57.90
2018-07-16T02:35:18.935Z,58.70
2018-07-16T02:37:46.124Z,58.40
2018-07-16T02:40:13.347Z,58.50
2018-07-16T02:42:40.590Z,58.60
2018-07-16T02:45:07.788Z,58.60
2018-07-16T02:47:35.047Z,58.70
2018-07-16T02:50:02.296Z,58.40
2018-07-16T02:52:29.819Z,58.30
2018-07-16T02:54:56.983Z,58.60
2018-07-16T02:57:24.199Z,58.50
2018-07-16T02:59:51.418Z,58.40
2018-07-16T03:02:18.656Z,58.60
2018-07-16T03:04:46.056Z,58.60
2018-07-16T03:07:13.292Z,58.40
2018-07-16T03:09:41.033Z,58.60
2018-07-16T03:12:08.670Z,58.60
2018-07-16T03:14:35.832Z,58.70
2018-07-16T03:17:03.062Z,58.90
2018-07-16T03:19:30.305Z,59.00
2018-07-16T03:21:57.576Z,58.90
2018-07-16T03:26:52.008Z,59.40
2018-07-16T03:29:19.238Z,59.30
2018-07-16T03:34:13.780Z,59.90
2018-07-16T03:36:40.976Z,60.10
2018-07-16T03:39:08.944Z,60.20
2018-07-16T03:41:36.210Z,60.70
2018-07-16T03:44:03.448Z,60.50
2018-07-16T03:46:30.676Z,60.60
2018-07-16T03:48:57.883Z,60.80
2018-07-16T03:51:25.092Z,60.60
2018-07-16T03:53:52.312Z,60.50
2018-07-16T03:56:19.550Z,60.10
2018-07-16T03:58:46.816Z,60.20
2018-07-16T04:01:14.040Z,60.30
2018-07-16T04:03:41.285Z,59.90
2018-07-16T04:06:08.594Z,59.80
2018-07-16T04:08:35.780Z,60.00
2018-07-16T04:11:02.976Z,60.10
2018-07-16T04:13:30.160Z,60.20
2018-07-16T04:15:57.376Z,60.20
2018-07-16T04:18:24.601Z,60.20
2018-07-16T04:20:51.872Z,60.30
2018-07-16T04:23:19.111Z,60.60
2018-07-16T04:25:46.313Z,60.60
2018-07-16T04:28:13.545Z,60.70
2018-07-16T04:30:40.728Z,60.70
2018-07-16T04:33:08.120Z,61.30
2018-07-16T04:35:35.371Z,61.50
2018-07-16T04:38:02.564Z,61.40
2018-07-16T04:40:29.784Z,61.60
2018-07-16T04:42:57.028Z,62.00
2018-07-16T04:45:24.263Z,62.40
2018-07-16T04:47:51.529Z,62.90
2018-07-16T04:50:18.761Z,62.70
2018-07-16T04:52:45.944Z,62.30
2018-07-16T04:55:13.328Z,62.30
2018-07-16T04:57:40.585Z,61.80
2018-07-16T05:00:07.964Z,61.70
2018-07-16T05:02:35.336Z,61.70
2018-07-16T05:05:02.584Z,61.30
2018-07-16T05:07:30.041Z,61.60
2018-07-16T05:09:57.228Z,61.40
2018-07-16T05:12:24.512Z,61.60
2018-07-16T05:14:51.736Z,61.80
2018-07-16T05:17:18.944Z,61.90
2018-07-16T05:19:46.192Z,61.90
2018-07-16T05:24:40.639Z,62.40
2018-07-16T05:27:07.879Z,62.10
2018-07-16T05:29:35.153Z,62.00
2018-07-16T05:32:02.496Z,63.00
2018-07-16T05:34:29.599Z,62.60
2018-07-16T05:36:56.864Z,63.00
2018-07-16T05:39:24.092Z,63.10
2018-07-16T05:41:51.548Z,63.00
2018-07-16T05:44:18.760Z,63.20
2018-07-16T05:46:46.022Z,63.40
2018-07-16T05:49:13.292Z,63.60
2018-07-16T05:51:40.508Z,63.60
2018-07-16T05:54:07.776Z,63.50
2018-07-16T05:56:34.975Z,63.60
2018-07-16T05:59:02.282Z,64.60
2018-07-16T06:01:29.496Z,64.90
2018-07-16T06:03:56.740Z,65.50
2018-07-16T06:06:24.688Z,65.50
2018-07-16T06:08:51.967Z,66.00
2018-07-16T06:11:19.226Z,65.60
2018-07-16T06:13:46.521Z,66.00
2018-07-16T06:16:13.832Z,65.60
2018-07-16T06:18:41.097Z,66.10
2018-07-16T06:21:08.304Z,66.30
2018-07-16T06:26:02.963Z,66.10
2018-07-16T06:28:30.220Z,66.20
2018-07-16T06:30:57.488Z,66.50
2018-07-16T06:33:24.743Z,66.30
2018-07-16T06:35:51.916Z,66.50
2018-07-16T06:38:19.137Z,66.70
2018-07-16T06:40:46.754Z,66.90
2018-07-16T06:43:13.904Z,67.50
2018-07-16T06:45:41.156Z,67.60
2018-07-16T06:48:08.443Z,67.80
2018-07-16T06:50:35.696Z,68.00
2018-07-16T06:53:03.032Z,67.70
2018-07-16T06:55:30.285Z,67.10
2018-07-16T06:57:57.541Z,66.90
2018-07-16T07:00:24.764Z,66.90
2018-07-16T07:02:51.968Z,66.90
2018-07-16T07:05:19.190Z,66.80
2018-07-16T07:07:46.438Z,66.90
2018-07-16T07:10:13.667Z,66.80
2018-07-16T07:12:40.921Z,66.30
2018-07-16T07:15:08.212Z,66.00
2018-07-16T07:17:35.408Z,66.20
2018-07-16T07:20:02.728Z,66.90
2018-07-16T07:22:29.936Z,66.30
2018-07-16T07:24:57.235Z,66.10
2018-07-16T07:27:24.930Z,65.90
2018-07-16T07:32:19.363Z,66.00
2018-07-16T07:34:46.565Z,65.20
2018-07-16T07:37:13.796Z,65.50
2018-07-16T07:39:40.972Z,66.00
2018-07-16T07:42:08.198Z,65.80
2018-07-16T07:44:35.461Z,65.90
2018-07-16T07:47:02.678Z,65.80
2018-07-16T07:49:29.897Z,65.80
2018-07-16T07:51:57.181Z,65.60
2018-07-16T07:54:24.475Z,65.80
2018-07-16T07:56:51.730Z,65.50
2018-07-16T07:59:18.959Z,65.40
2018-07-16T08:01:46.246Z,65.90
2018-07-16T08:04:13.466Z,66.30
2018-07-16T08:06:43.385Z,67.60
2018-07-16T08:09:10.576Z,67.40
2018-07-16T08:11:37.893Z,67.60
2018-07-16T08:14:05.180Z,67.80
2018-07-16T08:16:32.388Z,67.80
2018-07-16T08:18:59.660Z,67.70
2018-07-16T08:21:26.892Z,67.30
2018-07-16T08:23:54.106Z,67.00
2018-07-16T08:26:21.348Z,67.20
2018-07-16T08:28:48.621Z,67.30
2018-07-16T08:31:15.916Z,67.10
2018-07-16T08:33:43.250Z,66.90
2018-07-16T08:36:10.452Z,66.90
2018-07-16T08:38:37.683Z,66.90
2018-07-16T08:41:05.062Z,67.10
2018-07-16T08:43:32.321Z,67.10
2018-07-16T08:45:59.504Z,66.90
2018-07-16T08:48:26.808Z,66.90
2018-07-16T08:50:54.080Z,66.10
2018-07-16T08:53:21.264Z,66.00
2018-07-16T08:55:48.465Z,66.00
2018-07-16T08:58:15.672Z,65.80
2018-07-16T09:00:42.965Z,65.80
2018-07-16T09:03:10.242Z,65.80
2018-07-16T09:05:37.443Z,66.00
2018-07-16T09:08:04.846Z,66.10
2018-07-16T09:10:32.812Z,65.30
2018-07-16T09:13:00.032Z,65.30
2018-07-16T09:15:27.264Z,65.40
2018-07-16T09:17:54.494Z,65.70
2018-07-16T09:20:21.712Z,65.40
2018-07-16T09:22:49.016Z,65.40
2018-07-16T09:25:16.215Z,65.50
2018-07-16T09:27:43.506Z,65.30
2018-07-16T09:30:10.789Z,65.10
2018-07-16T09:32:38.096Z,65.30
2018-07-16T09:35:05.263Z,65.20
2018-07-16T09:37:32.517Z,65.10
2018-07-16T09:39:59.744Z,65.10
2018-07-16T09:42:27.018Z,64.90
2018-07-16T09:44:54.304Z,64.70
2018-07-16T09:49:50.016Z,64.60
2018-07-16T09:52:17.271Z,64.60
2018-07-16T09:54:44.572Z,64.50
2018-07-16T09:57:11.837Z,64.20
2018-07-16T09:59:39.054Z,64.20
2018-07-16T10:02:11.969Z,64.30
2018-07-16T10:04:39.231Z,64.20
2018-07-16T10:07:06.450Z,64.20
2018-07-16T10:09:33.701Z,64.00
2018-07-16T10:12:00.989Z,64.00
2018-07-16T10:14:28.294Z,64.20
2018-07-16T10:16:55.517Z,63.90
2018-07-16T10:19:22.737Z,63.80
2018-07-16T10:21:49.967Z,64.40
2018-07-16T10:24:17.276Z,63.80
2018-07-16T10:26:44.548Z,64.60
2018-07-16T10:29:11.788Z,63.90
2018-07-16T10:31:39.129Z,63.90
2018-07-16T10:34:06.358Z,63.70
2018-07-16T10:36:33.592Z,63.70
2018-07-16T10:39:00.881Z,63.60
2018-07-16T10:41:28.260Z,63.50
2018-07-16T10:43:55.645Z,63.40
2018-07-16T10:46:22.927Z,63.50
2018-07-16T10:48:50.254Z,63.60
2018-07-16T10:51:17.478Z,63.50
2018-07-16T10:53:44.620Z,63.40
2018-07-16T10:56:11.877Z,63.30
2018-07-16T10:58:39.099Z,63.30
2018-07-16T11:01:06.696Z,63.60
2018-07-16T11:03:33.985Z,63.40
2018-07-16T11:06:07.104Z,63.10
2018-07-16T11:08:34.399Z,63.00
2018-07-16T11:11:01.753Z,62.70
2018-07-16T11:13:29.000Z,62.50
2018-07-16T11:15:56.259Z,62.10
2018-07-16T11:18:23.505Z,61.70
2018-07-16T11:20:50.817Z,61.50
2018-07-16T11:23:17.984Z,61.20
2018-07-16T11:25:49.859Z,61.30
2018-07-16T11:28:17.056Z,60.70
2018-07-16T11:30:44.256Z,60.10
2018-07-16T11:33:11.485Z,59.70
2018-07-16T11:35:38.758Z,59.40
2018-07-16T11:38:06.000Z,59.40
2018-07-16T11:40:33.224Z,59.40
2018-07-16T11:43:00.424Z,59.30
2018-07-16T11:45:27.644Z,59.20
2018-07-16T11:47:54.840Z,58.90
2018-07-16T11:50:22.117Z,58.70
2018-07-16T11:52:49.320Z,58.20
2018-07-16T11:55:16.557Z,58.00
2018-07-16T11:57:43.721Z,57.90
2018-07-16T12:00:11.002Z,57.60
2018-07-16T12:02:38.204Z,57.10
2018-07-16T12:05:05.528Z,56.70
2018-07-16T12:07:32.628Z,56.60
2018-07-16T12:09:59.911Z,56.30
2018-07-16T12:14:54.362Z,56.40
2018-07-16T12:17:21.592Z,56.40
2018-07-16T12:19:48.819Z,55.90
2018-07-16T12:22:16.070Z,55.70
2018-07-16T12:24:43.352Z,55.50
2018-07-16T12:27:10.617Z,55.00
2018-07-16T12:29:37.849Z,55.00
2018-07-16T12:32:05.121Z,55.00
2018-07-16T12:34:32.312Z,54.70
2018-07-16T12:36:59.492Z,54.50
2018-07-16T12:39:26.809Z,54.90
2018-07-16T12:41:54.032Z,54.00
2018-07-16T12:44:21.466Z,53.90
2018-07-16T12:46:48.769Z,53.80
2018-07-16T12:49:16.079Z,53.90
2018-07-16T12:51:43.244Z,54.00
2018-07-16T12:54:10.476Z,54.20
2018-07-16T12:56:37.730Z,54.20
2018-07-16T12:59:04.993Z,54.10
2018-07-16T13:01:32.238Z,53.90
2018-07-16T13:03:59.437Z,53.70
2018-07-16T13:06:26.661Z,53.40
2018-07-16T13:08:54.277Z,53.30
2018-07-16T13:13:48.993Z,52.60
2018-07-16T13:16:16.221Z,53.20
2018-07-16T13:18:43.499Z,53.00
2018-07-16T13:21:10.718Z,52.80
2018-07-16T13:23:37.905Z,52.80
2018-07-16T13:26:05.316Z,52.80
2018-07-16T13:28:32.697Z,52.80
2018-07-16T13:30:59.888Z,52.40
2018-07-16T13:33:27.104Z,52.40
2018-07-16T13:35:54.413Z,52.10
2018-07-16T13:38:21.692Z,52.00
2018-07-16T13:43:16.127Z,51.90
2018-07-16T13:45:43.432Z,51.70
2018-07-16T13:48:10.677Z,51.50
2018-07-16T13:50:37.984Z,51.00
2018-07-16T13:53:05.844Z,50.90
2018-07-16T13:55:33.044Z,50.90
2018-07-16T13:58:00.295Z,50.60
2018-07-16T14:00:27.512Z,50.70
2018-07-16T14:02:54.732Z,50.70
2018-07-16T14:05:22.163Z,50.60
2018-07-16T14:07:49.464Z,50.50
2018-07-16T14:10:16.681Z,50.50
2018-07-16T14:12:43.948Z,50.40
2018-07-16T14:15:11.226Z,50.70
2018-07-16T14:17:38.456Z,50.20
2018-07-16T14:20:05.685Z,50.60
2018-07-16T14:22:32.965Z,50.90
2018-07-16T14:25:00.239Z,50.70
2018-07-16T14:27:27.438Z,50.70
2018-07-16T14:29:54.682Z,50.90
2018-07-16T14:32:21.895Z,51.20
2018-07-16T14:34:49.164Z,51.40
2018-07-16T14:37:16.439Z,51.60
2018-07-16T14:39:43.677Z,51.40
2018-07-16T14:42:11.765Z,51.40
2018-07-16T14:44:39.725Z,51.20
2018-07-16T14:47:06.979Z,51.60
2018-07-16T14:49:34.192Z,51.60
2018-07-16T14:52:01.420Z,51.60
2018-07-16T14:54:28.616Z,51.80
2018-07-16T14:56:55.801Z,51.40
2018-07-16T14:59:23.078Z,51.10
2018-07-16T15:01:50.339Z,50.50
2018-07-16T15:04:17.580Z,50.00
2018-07-16T15:06:44.833Z,49.60
2018-07-16T15:09:12.072Z,49.80
2018-07-16T15:11:39.360Z,50.20
2018-07-16T15:14:07.001Z,49.70
2018-07-16T15:16:34.247Z,49.60
2018-07-16T15:19:01.768Z,49.80
2018-07-16T15:21:29.226Z,49.80
2018-07-16T15:23:56.173Z,49.70
2018-07-16T15:26:23.391Z,49.60
2018-07-16T15:28:51.244Z,49.40
2018-07-16T15:31:18.515Z,49.30
2018-07-16T15:33:45.804Z,49.20
2018-07-16T15:36:13.022Z,49.20
2018-07-16T15:38:40.240Z,49.20
2018-07-16T15:41:07.411Z,49.20
2018-07-16T15:43:34.704Z,49.40
2018-07-16T15:46:01.912Z,49.40
2018-07-16T15:48:29.136Z,49.40
2018-07-16T15:50:56.376Z,49.00
2018-07-16T15:53:23.605Z,48.90
2018-07-16T15:55:50.836Z,49.40
2018-07-16T15:58:18.062Z,49.60
2018-07-16T16:00:45.289Z,49.70
2018-07-16T16:05:39.768Z,50.10
2018-07-16T16:08:06.939Z,50.50
2018-07-16T16:10:34.204Z,50.60
2018-07-16T16:13:01.475Z,50.90
2018-07-16T16:15:28.593Z,50.90
2018-07-16T16:17:55.801Z,51.20
2018-07-16T16:20:23.032Z,51.30
2018-07-16T16:22:50.286Z,51.60
2018-07-16T16:25:17.538Z,51.60
2018-07-16T16:27:44.828Z,51.60
2018-07-16T16:30:12.081Z,51.70
2018-07-16T16:32:39.813Z,51.70
2018-07-16T16:35:07.052Z,52.00
2018-07-16T16:37:34.318Z,52.20
2018-07-16T16:40:01.552Z,52.00
2018-07-16T16:42:28.788Z,51.90
2018-07-16T16:44:56.057Z,51.80
2018-07-16T16:47:23.319Z,51.60
2018-07-16T16:49:50.624Z,51.60
2018-07-16T16:54:45.078Z,52.00
2018-07-16T16:57:12.349Z,51.40
2018-07-16T16:59:39.574Z,51.00
2018-07-16T17:02:06.831Z,50.70
2018-07-16T17:04:34.064Z,50.60
2018-07-16T17:07:01.273Z,50.10
2018-07-16T17:09:28.520Z,50.00
2018-07-16T17:11:55.872Z,50.30
2018-07-16T17:14:23.076Z,49.90
2018-07-16T17:16:50.328Z,49.50
2018-07-16T17:19:17.637Z,49.20
2018-07-16T17:21:44.941Z,49.60
2018-07-16T17:24:12.136Z,48.70
2018-07-16T17:26:39.458Z,48.50
2018-07-16T17:29:06.656Z,48.40
2018-07-16T17:31:33.912Z,48.10
2018-07-16T17:34:01.269Z,48.00
2018-07-16T17:36:28.538Z,47.60
2018-07-16T17:38:55.738Z,47.90
2018-07-16T17:41:22.961Z,47.10
2018-07-16T17:43:50.222Z,46.80
2018-07-16T17:46:17.388Z,47.20
2018-07-16T17:48:44.641Z,46.70
2018-07-16T17:51:11.808Z,46.80
2018-07-16T17:53:38.996Z,46.90
2018-07-16T17:56:06.209Z,46.70
2018-07-16T17:58:33.614Z,46.40
2018-07-16T18:01:00.825Z,46.40
2018-07-16T18:03:28.109Z,46.40
2018-07-16T18:05:55.480Z,46.40
2018-07-16T18:08:22.708Z,46.30
2018-07-16T18:10:49.900Z,46.50
2018-07-16T18:13:17.187Z,46.50
2018-07-16T18:15:44.308Z,46.40
2018-07-16T18:18:11.509Z,46.50
2018-07-16T18:20:38.784Z,46.60
2018-07-16T18:23:06.092Z,47.10
2018-07-16T18:25:33.364Z,46.40
2018-07-16T18:28:00.580Z,46.10
2018-07-16T18:30:27.836Z,46.10
2018-07-16T18:32:55.044Z,46.20
2018-07-16T18:35:22.331Z,46.20
2018-07-16T18:37:49.483Z,46.00
2018-07-16T18:40:16.724Z,45.90
2018-07-16T18:42:44.004Z,45.60
2018-07-16T18:45:12.156Z,45.60
2018-07-16T18:47:39.372Z,45.70
2018-07-16T18:50:07.261Z,45.80
2018-07-16T18:52:34.509Z,45.70
2018-07-16T18:55:01.714Z,45.90
2018-07-16T18:57:28.890Z,46.00
2018-07-16T18:59:56.133Z,46.00
2018-07-16T19:02:23.329Z,46.00
2018-07-16T19:04:50.544Z,46.20
2018-07-16T19:07:20.836Z,46.10
2018-07-16T19:09:48.113Z,46.20
2018-07-16T19:12:15.316Z,46.40
2018-07-16T19:14:42.549Z,46.40
2018-07-16T19:17:09.760Z,46.50
2018-07-16T19:19:36.954Z,46.40
2018-07-16T19:22:04.164Z,46.30
2018-07-16T19:24:31.355Z,46.20
2018-07-16T19:26:59.610Z,46.30
2018-07-16T19:29:26.824Z,46.40
2018-07-16T19:31:54.036Z,46.30
2018-07-16T19:34:21.278Z,46.30
2018-07-16T19:36:48.480Z,46.40
2018-07-16T19:39:15.760Z,46.30
2018-07-16T19:41:47.513Z,46.20
2018-07-16T19:44:14.796Z,46.50
2018-07-16T19:46:42.088Z,46.30
2018-07-16T19:49:09.411Z,46.40
2018-07-16T19:51:36.695Z,46.50
2018-07-16T19:54:03.972Z,46.40
2018-07-16T19:56:31.161Z,46.30
2018-07-16T19:58:58.348Z,46.30
2018-07-16T20:01:25.548Z,46.60
2018-07-16T20:03:52.866Z,46.90
2018-07-16T20:06:20.047Z,47.00
2018-07-16T20:08:47.252Z,47.00
2018-07-16T20:11:14.477Z,47.00
2018-07-16T20:13:41.767Z,46.70
2018-07-16T20:16:09.069Z,46.40
2018-07-16T20:18:36.336Z,46.60
2018-07-16T20:21:03.523Z,46.50
2018-07-16T20:23:30.782Z,46.80
2018-07-16T20:25:58.753Z,46.80
2018-07-16T20:28:26.130Z,46.80
2018-07-16T20:30:53.596Z,46.90
2018-07-16T20:33:20.808Z,46.60
2018-07-16T20:35:48.291Z,46.30
2018-07-16T20:38:15.755Z,46.50
2018-07-16T20:40:43.005Z,46.30
2018-07-16T20:43:10.289Z,46.40
2018-07-16T20:45:37.505Z,46.60
2018-07-16T20:48:04.788Z,46.60
2018-07-16T20:50:31.957Z,46.70
2018-07-16T20:52:59.573Z,46.70
2018-07-16T20:55:26.796Z,46.80
2018-07-16T20:57:55.640Z,46.70
2018-07-16T21:00:22.904Z,46.90
2018-07-16T21:02:50.100Z,46.70
2018-07-16T21:05:17.344Z,46.80
2018-07-16T21:07:44.644Z,47.00
2018-07-16T21:10:11.928Z,47.30
2018-07-16T21:12:39.212Z,47.30
2018-07-16T21:15:06.448Z,47.40
2018-07-16T21:17:33.763Z,47.70
2018-07-16T21:20:00.997Z,47.80
2018-07-16T21:22:28.248Z,47.80
2018-07-16T21:24:55.488Z,47.90
2018-07-16T21:27:22.776Z,47.80
2018-07-16T21:29:49.961Z,48.00
2018-07-16T21:32:17.621Z,48.20
2018-07-16T21:34:44.883Z,48.20
2018-07-16T21:37:12.108Z,48.80
2018-07-16T21:39:39.408Z,49.00
2018-07-16T21:42:06.662Z,48.60
2018-07-16T21:44:33.880Z,48.40
2018-07-16T21:47:01.122Z,48.40
2018-07-16T21:49:28.385Z,48.50
2018-07-16T21:51:55.648Z,49.20
2018-07-16T21:54:22.830Z,48.60
2018-07-16T21:56:50.012Z,48.80
2018-07-16T21:59:17.229Z,49.00
2018-07-16T22:01:44.617Z,49.00
2018-07-16T22:04:11.859Z,49.20
2018-07-16T22:06:39.093Z,49.20
2018-07-16T22:09:06.997Z,49.40
2018-07-16T22:11:34.217Z,49.40
2018-07-16T22:14:01.473Z,49.50
2018-07-16T22:16:28.753Z,49.80
2018-07-16T22:18:55.980Z,50.10
2018-07-16T22:21:23.136Z,50.10
2018-07-16T22:23:50.385Z,49.90
2018-07-16T22:26:17.648Z,50.20
2018-07-16T22:28:44.893Z,50.30
2018-07-16T22:31:12.158Z,50.30
2018-07-16T22:33:39.464Z,50.30
2018-07-16T22:36:06.733Z,50.40
2018-07-16T22:38:33.980Z,50.30
2018-07-16T22:41:01.197Z,50.50
2018-07-16T22:43:28.390Z,50.60
2018-07-16T22:45:55.638Z,50.80
2018-07-16T22:48:22.861Z,50.90
2018-07-16T22:50:50.070Z,50.70
2018-07-16T22:53:17.301Z,50.80
2018-07-16T22:55:44.456Z,50.90
2018-07-16T22:58:11.648Z,51.10
2018-07-16T23:00:38.908Z,51.40
2018-07-16T23:03:06.152Z,51.50
2018-07-16T23:05:33.372Z,51.70
2018-07-16T23:08:00.564Z,51.40
2018-07-16T23:10:27.820Z,51.60
2018-07-16T23:12:55.033Z,51.70
2018-07-16T23:15:22.304Z,51.60
2018-07-16T23:17:49.529Z,51.60
2018-07-16T23:20:16.749Z,51.90
2018-07-16T23:22:49.160Z,52.00
2018-07-16T23:25:16.378Z,52.10
2018-07-16T23:27:43.692Z,52.30
2018-07-16T23:30:10.976Z,52.20
2018-07-16T23:32:38.193Z,52.50
2018-07-16T23:35:05.792Z,52.00
2018-07-16T23:37:33.007Z,52.00
2018-07-16T23:40:00.245Z,52.00
2018-07-16T23:42:27.481Z,52.10
2018-07-16T23:44:54.728Z,52.10
2018-07-16T23:47:21.902Z,52.40
2018-07-16T23:49:49.184Z,52.30
2018-07-16T23:52:16.444Z,52.50
2018-07-16T23:54:43.656Z,52.80
2018-07-16T23:57:11.028Z,52.60
